createdAt,value
2017-10-16T00:00:45.820Z,0
2017-10-16T00:01:47.427Z,0
2017-10-16T00:02:49.048Z,0
2017-10-16T00:03:50.650Z,0
2017-10-16T00:04:52.262Z,0
2017-10-16T00:05:53.869Z,0
2017-10-16T00:06:55.485Z,0
2017-10-16T00:07:57.087Z,0
2017-10-16T00:08:58.700Z,0
2017-10-16T00:10:00.312Z,0
2017-10-16T00:11:01.924Z,0
2017-10-16T00:12:03.534Z,0
2017-10-16T00:13:05.138Z,0
2017-10-16T00:14:06.752Z,0
2017-10-16T00:15:08.357Z,0
2017-10-16T00:16:09.973Z,0
2017-10-16T00:17:11.580Z,0
2017-10-16T00:18:13.196Z,0
2017-10-16T00:19:14.806Z,0
2017-10-16T00:20:16.413Z,0
2017-10-16T00:21:18.027Z,0
2017-10-16T00:22:19.635Z,0
2017-10-16T00:23:21.248Z,0
2017-10-16T00:24:22.859Z,0
2017-10-16T00:25:24.474Z,0
2017-10-16T00:26:26.081Z,0
2017-10-16T00:27:27.696Z,0
2017-10-16T00:28:29.305Z,0
2017-10-16T00:29:30.916Z,0
2017-10-16T00:30:32.522Z,0
2017-10-16T00:31:34.138Z,0
2017-10-16T00:32:35.745Z,0
2017-10-16T00:33:37.363Z,0
2017-10-16T00:34:38.972Z,0
2017-10-16T00:35:40.578Z,0
2017-10-16T00:36:42.193Z,0
2017-10-16T00:37:43.801Z,0
2017-10-16T00:38:45.414Z,0
2017-10-16T00:39:47.027Z,0
2017-10-16T00:40:48.635Z,0
2017-10-16T00:41:50.243Z,0
2017-10-16T00:42:51.850Z,0
2017-10-16T00:43:53.462Z,0
2017-10-16T00:44:55.078Z,0
2017-10-16T00:45:56.686Z,0
2017-10-16T00:46:58.295Z,0
2017-10-16T00:47:59.909Z,0
2017-10-16T00:49:01.521Z,0
2017-10-16T00:50:03.127Z,0
2017-10-16T00:51:04.743Z,0
2017-10-16T00:52:06.352Z,0
2017-10-16T00:53:07.968Z,0
2017-10-16T00:54:09.580Z,0
2017-10-16T00:55:11.190Z,0
2017-10-16T00:56:12.798Z,0
2017-10-16T00:57:14.410Z,0
2017-10-16T00:58:16.014Z,0
2017-10-16T00:59:17.624Z,0
2017-10-16T01:00:19.239Z,0
2017-10-16T01:01:20.851Z,0
2017-10-16T01:02:22.462Z,0
2017-10-16T01:03:24.070Z,0
2017-10-16T01:04:25.686Z,0
2017-10-16T01:05:27.298Z,0
2017-10-16T01:06:28.903Z,0
2017-10-16T01:07:30.514Z,0
2017-10-16T01:08:32.131Z,0
2017-10-16T01:09:33.740Z,0
2017-10-16T01:10:35.348Z,0
2017-10-16T01:11:36.960Z,0
2017-10-16T01:12:38.573Z,0
2017-10-16T01:13:40.178Z,0
2017-10-16T01:14:41.791Z,0
2017-10-16T01:15:43.405Z,0
2017-10-16T01:16:45.011Z,0
2017-10-16T01:17:46.626Z,0
2017-10-16T01:18:48.231Z,0
2017-10-16T01:19:49.845Z,0
2017-10-16T01:20:51.452Z,0
2017-10-16T01:21:53.076Z,0
2017-10-16T01:22:54.678Z,0
2017-10-16T01:23:56.293Z,0
2017-10-16T01:24:57.899Z,0
2017-10-16T01:25:59.506Z,0
2017-10-16T01:27:01.112Z,0
2017-10-16T01:28:02.719Z,0
2017-10-16T01:29:04.331Z,0
2017-10-16T01:30:05.947Z,0
2017-10-16T01:31:07.556Z,0
2017-10-16T01:32:09.164Z,0
2017-10-16T01:33:10.778Z,0
2017-10-16T01:34:12.383Z,0
2017-10-16T01:35:13.995Z,0
2017-10-16T01:36:15.601Z,0
2017-10-16T01:37:17.216Z,0
2017-10-16T01:38:18.823Z,0
2017-10-16T01:39:20.432Z,0
2017-10-16T01:40:22.037Z,0
2017-10-16T01:41:23.652Z,0
2017-10-16T01:42:25.265Z,0
2017-10-16T01:43:26.878Z,0
2017-10-16T01:44:28.491Z,0
2017-10-16T01:45:30.109Z,0
2017-10-16T01:46:31.713Z,0
2017-10-16T01:47:33.323Z,0
2017-10-16T01:48:34.929Z,0
2017-10-16T01:49:36.543Z,0
2017-10-16T01:50:38.183Z,0
2017-10-16T01:51:39.764Z,0
2017-10-16T01:52:41.376Z,0
2017-10-16T01:53:42.987Z,0
2017-10-16T01:54:44.596Z,0
2017-10-16T01:55:46.208Z,0
2017-10-16T01:56:47.820Z,0
2017-10-16T01:57:49.428Z,0
2017-10-16T01:58:51.045Z,0
2017-10-16T01:59:52.655Z,0
2017-10-16T02:00:54.264Z,0
2017-10-16T02:01:55.871Z,0
2017-10-16T02:02:57.480Z,0
2017-10-16T02:03:59.093Z,0
2017-10-16T02:05:00.704Z,0
2017-10-16T02:06:02.312Z,0
2017-10-16T02:07:03.925Z,0
2017-10-16T02:08:05.530Z,0
2017-10-16T02:09:07.143Z,0
2017-10-16T02:10:08.747Z,0
2017-10-16T02:11:10.357Z,0
2017-10-16T02:12:11.973Z,0
2017-10-16T02:13:13.581Z,0
2017-10-16T02:14:15.196Z,0
2017-10-16T02:15:16.803Z,0
2017-10-16T02:16:18.415Z,0
2017-10-16T02:17:20.018Z,0
2017-10-16T02:18:21.638Z,0
2017-10-16T02:19:23.237Z,0
2017-10-16T02:20:24.854Z,0
2017-10-16T02:21:26.460Z,0
2017-10-16T02:22:28.074Z,0
2017-10-16T02:23:29.682Z,0
2017-10-16T02:24:31.298Z,0
2017-10-16T02:25:32.904Z,0
2017-10-16T02:26:34.519Z,0
2017-10-16T02:27:36.127Z,0
2017-10-16T02:28:37.745Z,0
2017-10-16T02:29:39.358Z,0
2017-10-16T02:30:40.965Z,0
2017-10-16T02:31:42.578Z,0
2017-10-16T02:32:44.184Z,0
2017-10-16T02:33:45.800Z,0
2017-10-16T02:34:47.408Z,0
2017-10-16T02:35:49.032Z,0
2017-10-16T02:36:50.636Z,0
2017-10-16T02:37:52.250Z,0
2017-10-16T02:38:53.859Z,0
2017-10-16T02:39:55.471Z,0
2017-10-16T02:40:57.081Z,0
2017-10-16T02:41:58.706Z,0
2017-10-16T02:43:00.306Z,0
2017-10-16T02:44:01.932Z,0
2017-10-16T02:45:03.531Z,0
2017-10-16T02:46:05.146Z,0
2017-10-16T02:47:06.750Z,0
2017-10-16T02:48:08.361Z,0
2017-10-16T02:49:09.975Z,0
2017-10-16T02:50:11.590Z,0
2017-10-16T02:51:13.196Z,0
2017-10-16T02:52:14.803Z,0
2017-10-16T02:53:16.416Z,0
2017-10-16T02:54:18.027Z,0
2017-10-16T02:55:19.636Z,0
2017-10-16T02:56:21.242Z,0
2017-10-16T02:57:22.857Z,0
2017-10-16T02:58:24.467Z,0
2017-10-16T02:59:26.079Z,0
2017-10-16T03:00:27.678Z,0
2017-10-16T03:01:29.295Z,0
2017-10-16T03:02:30.899Z,0
2017-10-16T03:03:32.509Z,0
2017-10-16T03:04:34.120Z,0
2017-10-16T03:05:35.733Z,0
2017-10-16T03:06:37.338Z,0
2017-10-16T03:07:38.952Z,0
2017-10-16T03:08:40.558Z,0
2017-10-16T03:09:42.175Z,0
2017-10-16T03:10:43.785Z,0
2017-10-16T03:11:45.401Z,0
2017-10-16T03:12:46.999Z,0
2017-10-16T03:13:48.613Z,0
2017-10-16T03:14:50.235Z,0
2017-10-16T03:15:51.842Z,0
2017-10-16T03:16:53.453Z,0
2017-10-16T03:17:55.068Z,0
2017-10-16T03:18:56.681Z,0
2017-10-16T03:19:58.287Z,0
2017-10-16T03:20:59.904Z,0
2017-10-16T03:22:01.514Z,0
2017-10-16T03:23:03.123Z,0
2017-10-16T03:24:04.730Z,0
2017-10-16T03:25:06.344Z,0
2017-10-16T03:26:07.950Z,0
2017-10-16T03:27:09.558Z,0
2017-10-16T03:28:11.171Z,0
2017-10-16T03:29:12.777Z,0
2017-10-16T03:30:14.391Z,0
2017-10-16T03:31:15.999Z,0
2017-10-16T03:32:17.613Z,0
2017-10-16T03:33:19.222Z,0
2017-10-16T03:34:20.834Z,0
2017-10-16T03:35:22.445Z,0
2017-10-16T03:36:24.054Z,0
2017-10-16T03:37:25.664Z,0
2017-10-16T03:38:27.279Z,0
2017-10-16T03:39:28.891Z,0
2017-10-16T03:40:30.499Z,0
2017-10-16T03:41:32.117Z,0
2017-10-16T03:42:33.729Z,0
2017-10-16T03:43:35.340Z,0
2017-10-16T03:44:36.946Z,0
2017-10-16T03:45:38.561Z,0
2017-10-16T03:46:40.169Z,0
2017-10-16T03:47:41.789Z,0
2017-10-16T03:48:43.391Z,0
2017-10-16T03:49:45.004Z,0
2017-10-16T03:50:46.611Z,0
2017-10-16T03:51:48.218Z,0
2017-10-16T03:52:49.831Z,0
2017-10-16T03:53:51.448Z,0
2017-10-16T03:54:53.054Z,0
2017-10-16T03:55:54.660Z,0
2017-10-16T03:56:56.275Z,0
2017-10-16T03:57:57.886Z,0
2017-10-16T03:58:59.493Z,0
2017-10-16T04:00:01.107Z,0
2017-10-16T04:01:02.716Z,0
2017-10-16T04:02:04.329Z,0
2017-10-16T04:03:05.942Z,0
2017-10-16T04:04:07.553Z,0
2017-10-16T04:05:09.161Z,0
2017-10-16T04:06:10.768Z,0
2017-10-16T04:07:12.382Z,0
2017-10-16T04:08:13.995Z,0
2017-10-16T04:09:15.603Z,0
2017-10-16T04:10:17.209Z,0
2017-10-16T04:11:18.822Z,0
2017-10-16T04:12:20.433Z,0
2017-10-16T04:13:22.038Z,0
2017-10-16T04:14:23.649Z,0
2017-10-16T04:15:25.262Z,0
2017-10-16T04:16:26.879Z,0
2017-10-16T04:17:28.489Z,0
2017-10-16T04:18:30.099Z,0
2017-10-16T04:19:31.708Z,0
2017-10-16T04:20:33.319Z,0
2017-10-16T04:21:34.932Z,0
2017-10-16T04:22:36.539Z,0
2017-10-16T04:23:38.149Z,0
2017-10-16T04:24:39.762Z,0
2017-10-16T04:25:41.369Z,0
2017-10-16T04:26:42.982Z,0
2017-10-16T04:27:44.589Z,0
2017-10-16T04:28:46.201Z,0
2017-10-16T04:29:47.810Z,0
2017-10-16T04:30:49.431Z,0
2017-10-16T04:31:51.034Z,0
2017-10-16T04:32:52.646Z,0
2017-10-16T04:33:54.257Z,0
2017-10-16T04:34:55.867Z,0
2017-10-16T04:35:57.475Z,0
2017-10-16T04:36:59.089Z,0
2017-10-16T04:38:00.698Z,0
2017-10-16T04:39:02.310Z,0
2017-10-16T04:40:03.923Z,0
2017-10-16T04:41:05.529Z,0
2017-10-16T04:42:07.142Z,0
2017-10-16T04:43:08.750Z,0
2017-10-16T04:44:10.367Z,0
2017-10-16T04:45:11.974Z,0
2017-10-16T04:46:13.586Z,0
2017-10-16T04:47:15.193Z,0
2017-10-16T04:48:16.806Z,0
2017-10-16T04:49:18.413Z,0
2017-10-16T04:50:20.022Z,0
2017-10-16T04:51:21.632Z,0
2017-10-16T04:52:23.241Z,0
2017-10-16T04:53:24.850Z,0
2017-10-16T04:54:26.464Z,0
2017-10-16T04:55:28.078Z,0
2017-10-16T04:56:29.680Z,0
2017-10-16T04:57:31.298Z,0
2017-10-16T04:58:32.904Z,0
2017-10-16T04:59:34.517Z,0
2017-10-16T05:00:36.129Z,0
2017-10-16T05:01:37.739Z,0
2017-10-16T05:02:39.350Z,0
2017-10-16T05:03:40.956Z,0
2017-10-16T05:04:42.570Z,0
2017-10-16T05:05:44.182Z,0
2017-10-16T05:06:45.794Z,0
2017-10-16T05:07:47.401Z,0
2017-10-16T05:08:49.013Z,0
2017-10-16T05:09:50.624Z,0
2017-10-16T05:10:52.231Z,0
2017-10-16T05:11:53.838Z,0
2017-10-16T05:12:55.448Z,0
2017-10-16T05:13:57.065Z,0
2017-10-16T05:14:58.673Z,0
2017-10-16T05:16:00.286Z,0
2017-10-16T05:17:01.894Z,0
2017-10-16T05:18:03.508Z,0
2017-10-16T05:19:05.116Z,0
2017-10-16T05:20:06.732Z,0
2017-10-16T05:21:08.342Z,0
2017-10-16T05:22:09.955Z,0
2017-10-16T05:23:11.563Z,4
2017-10-16T05:24:13.173Z,0
2017-10-16T05:25:14.786Z,0
2017-10-16T05:26:16.396Z,4
2017-10-16T05:27:18.006Z,0
2017-10-16T05:28:19.619Z,4
2017-10-16T05:29:21.228Z,4
2017-10-16T05:30:22.833Z,4
2017-10-16T05:31:24.446Z,8
2017-10-16T05:32:26.053Z,8
2017-10-16T05:33:27.673Z,8
2017-10-16T05:34:29.275Z,12
2017-10-16T05:35:30.891Z,12
2017-10-16T05:36:32.500Z,16
2017-10-16T05:37:34.117Z,16
2017-10-16T05:38:35.729Z,24
2017-10-16T05:39:37.341Z,28
2017-10-16T05:40:38.953Z,28
2017-10-16T05:41:40.562Z,40
2017-10-16T05:42:42.176Z,40
2017-10-16T05:43:43.782Z,36
2017-10-16T05:44:45.399Z,52
2017-10-16T05:45:47.013Z,64
2017-10-16T05:46:48.626Z,76
2017-10-16T05:47:50.233Z,84
2017-10-16T05:48:51.843Z,96
2017-10-16T05:49:53.461Z,112
2017-10-16T05:50:55.092Z,124
2017-10-16T05:51:56.701Z,140
2017-10-16T05:52:58.312Z,156
2017-10-16T05:53:59.967Z,172
2017-10-16T05:55:01.543Z,192
2017-10-16T05:56:03.155Z,212
2017-10-16T05:57:04.769Z,240
2017-10-16T05:58:06.379Z,272
2017-10-16T05:59:07.990Z,308
2017-10-16T06:00:09.602Z,336
2017-10-16T06:01:11.219Z,368
2017-10-16T06:02:12.830Z,396
2017-10-16T06:03:14.444Z,420
2017-10-16T06:04:16.061Z,508
2017-10-16T06:05:17.684Z,544
2017-10-16T06:06:19.292Z,588
2017-10-16T06:07:27.249Z,624
2017-10-16T06:08:28.922Z,664
2017-10-16T06:09:30.540Z,696
2017-10-16T06:10:32.150Z,736
2017-10-16T06:11:33.820Z,768
2017-10-16T06:12:35.429Z,800
2017-10-16T06:13:37.036Z,836
2017-10-16T06:14:38.649Z,868
2017-10-16T06:15:40.265Z,904
2017-10-16T06:16:41.874Z,940
2017-10-16T06:17:43.499Z,980
2017-10-16T06:18:45.139Z,1020
2017-10-16T06:19:46.749Z,1068
2017-10-16T06:20:48.366Z,1116
2017-10-16T06:21:49.977Z,1172
2017-10-16T06:22:51.592Z,1228
2017-10-16T06:23:53.208Z,1284
2017-10-16T06:24:54.890Z,1348
2017-10-16T06:25:56.504Z,1420
2017-10-16T06:26:58.124Z,1488
2017-10-16T06:27:59.741Z,1564
2017-10-16T06:29:01.351Z,1644
2017-10-16T06:30:02.973Z,1728
2017-10-16T06:31:04.591Z,1816
2017-10-16T06:32:06.220Z,1904
2017-10-16T06:33:07.836Z,1728
2017-10-16T06:34:09.452Z,1804
2017-10-16T06:35:11.062Z,1348
2017-10-16T06:36:12.690Z,1580
2017-10-16T06:37:14.301Z,2020
2017-10-16T06:38:36.244Z,2076
2017-10-16T06:39:37.854Z,2140
2017-10-16T06:41:29.554Z,2252
2017-10-16T06:42:31.166Z,2308
2017-10-16T06:44:23.381Z,2592
2017-10-16T06:45:24.994Z,2664
2017-10-16T06:46:26.612Z,2728
2017-10-16T06:47:28.231Z,2796
2017-10-16T06:48:29.848Z,2868
2017-10-16T06:49:31.460Z,2928
2017-10-16T06:50:33.080Z,3000
2017-10-16T06:51:34.700Z,3068
2017-10-16T06:52:36.309Z,3144
2017-10-16T06:53:37.930Z,3212
2017-10-16T06:54:39.542Z,3292
2017-10-16T06:55:41.158Z,3372
2017-10-16T06:56:42.780Z,3440
2017-10-16T06:57:44.400Z,3520
2017-10-16T06:58:46.017Z,3616
2017-10-16T06:59:47.634Z,3704
2017-10-16T07:00:49.253Z,3764
2017-10-16T07:01:50.868Z,3836
2017-10-16T07:02:52.483Z,3932
2017-10-16T07:03:54.104Z,4020
2017-10-16T07:04:55.723Z,4136
2017-10-16T07:05:57.346Z,4232
2017-10-16T07:06:58.960Z,4324
2017-10-16T07:08:00.581Z,4424
2017-10-16T07:09:02.193Z,4528
2017-10-16T07:10:03.822Z,4612
2017-10-16T07:11:05.427Z,4712
2017-10-16T07:12:07.048Z,4792
2017-10-16T07:13:08.667Z,4852
2017-10-16T07:14:10.285Z,4892
2017-10-16T07:15:11.904Z,4920
2017-10-16T07:16:13.518Z,4940
2017-10-16T07:17:15.131Z,4912
2017-10-16T07:18:16.750Z,4812
2017-10-16T07:19:18.367Z,4704
2017-10-16T07:20:19.986Z,4864
2017-10-16T07:21:21.599Z,5272
2017-10-16T07:22:23.220Z,5384
2017-10-16T07:23:24.832Z,7128
2017-10-16T07:24:26.448Z,7160
2017-10-16T07:25:28.071Z,7144
2017-10-16T07:26:29.690Z,7924
2017-10-16T07:27:31.313Z,8756
2017-10-16T07:28:32.925Z,9168
2017-10-16T07:29:34.547Z,9420
2017-10-16T07:30:36.162Z,9748
2017-10-16T07:31:37.786Z,10160
2017-10-16T07:32:39.404Z,10624
2017-10-16T07:33:41.028Z,11024
2017-10-16T07:34:42.649Z,11964
2017-10-16T07:35:44.274Z,12476
2017-10-16T07:36:45.896Z,12572
2017-10-16T07:37:47.517Z,12744
2017-10-16T07:38:49.140Z,13120
2017-10-16T07:39:50.760Z,13048
2017-10-16T07:40:52.387Z,13376
2017-10-16T07:41:54.009Z,14240
2017-10-16T07:42:55.632Z,14912
2017-10-16T07:43:57.250Z,15712
2017-10-16T07:44:58.874Z,16352
2017-10-16T07:46:00.500Z,17248
2017-10-16T07:47:02.122Z,17824
2017-10-16T07:48:03.743Z,18624
2017-10-16T07:49:05.366Z,19264
2017-10-16T07:50:06.990Z,20064
2017-10-16T07:51:08.613Z,20352
2017-10-16T07:52:10.233Z,20096
2017-10-16T07:53:11.851Z,20128
2017-10-16T07:54:13.472Z,19712
2017-10-16T07:55:15.101Z,18848
2017-10-16T07:56:16.730Z,18656
2017-10-16T07:57:18.346Z,18624
2017-10-16T07:58:19.972Z,18624
2017-10-16T07:59:21.597Z,19104
2017-10-16T08:00:23.213Z,19136
2017-10-16T08:01:24.839Z,18912
2017-10-16T08:02:26.468Z,18656
2017-10-16T08:03:28.094Z,18304
2017-10-16T08:04:29.715Z,19040
2017-10-16T08:05:31.341Z,19168
2017-10-16T08:06:32.964Z,18880
2017-10-16T08:07:34.582Z,18496
2017-10-16T08:08:36.205Z,18368
2017-10-16T08:09:37.828Z,18304
2017-10-16T08:10:39.455Z,18432
2017-10-16T08:11:41.085Z,18272
2017-10-16T08:12:42.704Z,18208
2017-10-16T08:13:44.334Z,18464
2017-10-16T08:14:45.953Z,18496
2017-10-16T08:15:47.584Z,18752
2017-10-16T08:16:49.207Z,19168
2017-10-16T08:17:50.837Z,19616
2017-10-16T08:18:52.458Z,20192
2017-10-16T08:19:54.084Z,20320
2017-10-16T08:20:55.705Z,20672
2017-10-16T08:21:57.337Z,20832
2017-10-16T08:22:58.960Z,19008
2017-10-16T08:24:00.591Z,19232
2017-10-16T08:25:02.216Z,18944
2017-10-16T08:26:03.847Z,21184
2017-10-16T08:27:05.473Z,20288
2017-10-16T08:28:07.101Z,20704
2017-10-16T08:29:08.729Z,20800
2017-10-16T08:30:10.351Z,20800
2017-10-16T08:31:11.983Z,20320
2017-10-16T08:32:13.606Z,19712
2017-10-16T08:33:15.237Z,19392
2017-10-16T08:34:16.872Z,19616
2017-10-16T08:35:18.495Z,19904
2017-10-16T08:36:20.121Z,20544
2017-10-16T08:37:21.753Z,21152
2017-10-16T08:38:23.384Z,21472
2017-10-16T08:39:25.010Z,21632
2017-10-16T08:40:26.640Z,21568
2017-10-16T08:41:28.267Z,21632
2017-10-16T08:42:29.898Z,21728
2017-10-16T08:43:31.522Z,21760
2017-10-16T08:44:33.155Z,21728
2017-10-16T08:45:34.787Z,21408
2017-10-16T08:46:36.411Z,18944
2017-10-16T08:47:38.042Z,20480
2017-10-16T08:48:39.675Z,20256
2017-10-16T08:49:41.299Z,18816
2017-10-16T08:50:42.935Z,20992
2017-10-16T08:51:44.564Z,20800
2017-10-16T08:52:46.200Z,20096
2017-10-16T08:53:47.829Z,21504
2017-10-16T08:54:49.462Z,21088
2017-10-16T08:55:51.085Z,21344
2017-10-16T08:56:52.714Z,20928
2017-10-16T08:57:54.347Z,20576
2017-10-16T08:58:55.974Z,20160
2017-10-16T08:59:57.612Z,20160
2017-10-16T09:00:59.239Z,16768
2017-10-16T09:02:00.871Z,17952
2017-10-16T09:03:02.502Z,17120
2017-10-16T09:04:04.130Z,19584
2017-10-16T09:05:05.761Z,19520
2017-10-16T09:06:07.396Z,19584
2017-10-16T09:07:09.018Z,19488
2017-10-16T09:08:10.657Z,19360
2017-10-16T09:09:12.281Z,19232
2017-10-16T09:10:13.919Z,19168
2017-10-16T09:11:15.545Z,19104
2017-10-16T09:12:17.177Z,19200
2017-10-16T09:13:18.806Z,19232
2017-10-16T09:14:20.441Z,19136
2017-10-16T09:15:22.075Z,19072
2017-10-16T09:16:23.699Z,19104
2017-10-16T09:17:25.331Z,19232
2017-10-16T09:18:26.965Z,19168
2017-10-16T09:19:28.597Z,19264
2017-10-16T09:20:30.228Z,19488
2017-10-16T09:21:31.860Z,19616
2017-10-16T09:22:33.495Z,19808
2017-10-16T09:23:35.128Z,19840
2017-10-16T09:24:36.754Z,21056
2017-10-16T09:25:38.385Z,24480
2017-10-16T09:26:40.018Z,25568
2017-10-16T09:27:41.654Z,24608
2017-10-16T09:28:43.280Z,24352
2017-10-16T09:29:44.926Z,23968
2017-10-16T09:30:46.551Z,24288
2017-10-16T09:31:48.186Z,24416
2017-10-16T09:32:49.821Z,24928
2017-10-16T09:33:51.456Z,25120
2017-10-16T09:34:53.083Z,25184
2017-10-16T09:35:54.717Z,25600
2017-10-16T09:36:56.356Z,26240
2017-10-16T09:37:57.984Z,27040
2017-10-16T09:38:59.620Z,27616
2017-10-16T09:40:01.255Z,27552
2017-10-16T09:41:02.879Z,27616
2017-10-16T09:42:04.514Z,27840
2017-10-16T09:43:06.150Z,27392
2017-10-16T09:44:07.791Z,27360
2017-10-16T09:45:09.412Z,27744
2017-10-16T09:46:11.040Z,28256
2017-10-16T09:47:12.678Z,28704
2017-10-16T09:48:14.310Z,29344
2017-10-16T09:49:15.937Z,29120
2017-10-16T09:50:17.570Z,28768
2017-10-16T09:51:19.215Z,28320
2017-10-16T09:52:20.850Z,28896
2017-10-16T09:53:22.477Z,28832
2017-10-16T09:54:24.116Z,28640
2017-10-16T09:55:25.742Z,28640
2017-10-16T09:56:27.378Z,28704
2017-10-16T09:57:29.009Z,28736
2017-10-16T09:58:30.645Z,28128
2017-10-16T09:59:32.275Z,28640
2017-10-16T10:00:33.908Z,29152
2017-10-16T10:01:35.541Z,29408
2017-10-16T10:02:37.176Z,29536
2017-10-16T10:03:38.808Z,29344
2017-10-16T10:04:40.443Z,29568
2017-10-16T10:05:42.076Z,29408
2017-10-16T10:06:43.712Z,29536
2017-10-16T10:07:45.339Z,29312
2017-10-16T10:08:46.977Z,29216
2017-10-16T10:09:48.608Z,28416
2017-10-16T10:10:50.240Z,28832
2017-10-16T10:11:51.880Z,28928
2017-10-16T10:12:53.511Z,29216
2017-10-16T10:13:55.146Z,29120
2017-10-16T10:14:56.779Z,28672
2017-10-16T10:15:58.411Z,28800
2017-10-16T10:17:00.058Z,28928
2017-10-16T10:18:01.675Z,28864
2017-10-16T10:19:03.306Z,28320
2017-10-16T10:20:04.943Z,27584
2017-10-16T10:21:06.572Z,26976
2017-10-16T10:22:08.211Z,27648
2017-10-16T10:23:09.832Z,28000
2017-10-16T10:24:11.473Z,27872
2017-10-16T10:25:13.105Z,28064
2017-10-16T10:26:14.744Z,27712
2017-10-16T10:27:16.374Z,26880
2017-10-16T10:28:18.013Z,27072
2017-10-16T10:29:19.646Z,27072
2017-10-16T10:30:21.276Z,26784
2017-10-16T10:31:22.906Z,27264
2017-10-16T10:32:24.544Z,27552
2017-10-16T10:33:26.182Z,27104
2017-10-16T10:34:27.815Z,26688
2017-10-16T10:35:29.448Z,27200
2017-10-16T10:36:31.086Z,27296
2017-10-16T10:37:32.722Z,27168
2017-10-16T10:38:34.351Z,26816
2017-10-16T10:39:35.986Z,26016
2017-10-16T10:40:37.628Z,26528
2017-10-16T10:41:39.266Z,27296
2017-10-16T10:42:40.895Z,26944
2017-10-16T10:43:42.528Z,26816
2017-10-16T10:44:44.159Z,26592
2017-10-16T10:45:45.789Z,26048
2017-10-16T10:46:47.423Z,26432
2017-10-16T10:47:49.060Z,26336
2017-10-16T10:48:50.688Z,26144
2017-10-16T10:49:52.316Z,26272
2017-10-16T10:50:53.950Z,26496
2017-10-16T10:51:55.581Z,26976
2017-10-16T10:52:57.218Z,27584
2017-10-16T10:53:58.845Z,28128
2017-10-16T10:55:00.477Z,28832
2017-10-16T10:56:02.110Z,28384
2017-10-16T10:57:03.739Z,27712
2017-10-16T10:58:05.372Z,25952
2017-10-16T10:59:06.999Z,22336
2017-10-16T11:00:08.641Z,24640
2017-10-16T11:01:10.267Z,21056
2017-10-16T11:02:11.902Z,18400
2017-10-16T11:03:13.531Z,15968
2017-10-16T11:04:15.165Z,14968
2017-10-16T11:05:16.795Z,13044
2017-10-16T11:06:18.427Z,11136
2017-10-16T11:07:20.053Z,9116
2017-10-16T11:08:21.685Z,8204
2017-10-16T11:09:23.311Z,7920
2017-10-16T11:10:24.941Z,7744
2017-10-16T11:11:27.368Z,7740
2017-10-16T11:12:28.996Z,7996
2017-10-16T11:13:30.625Z,8572
2017-10-16T11:14:32.244Z,9240
2017-10-16T11:15:33.882Z,10116
2017-10-16T11:16:35.513Z,11120
2017-10-16T11:17:37.142Z,11304
2017-10-16T11:18:38.764Z,12240
2017-10-16T11:19:40.396Z,15436
2017-10-16T11:20:42.019Z,19136
2017-10-16T11:21:43.652Z,21184
2017-10-16T11:22:45.276Z,24000
2017-10-16T11:23:46.910Z,23936
2017-10-16T11:24:48.539Z,23264
2017-10-16T11:25:50.160Z,18080
2017-10-16T11:26:51.790Z,17312
2017-10-16T11:27:53.418Z,17152
2017-10-16T11:28:55.049Z,15172
2017-10-16T11:29:56.672Z,13020
2017-10-16T11:30:58.306Z,13680
2017-10-16T11:31:59.933Z,18464
2017-10-16T11:33:01.563Z,22688
2017-10-16T11:34:03.186Z,23776
2017-10-16T11:35:04.813Z,21568
2017-10-16T11:36:06.447Z,18688
2017-10-16T11:37:08.076Z,20640
2017-10-16T11:38:09.704Z,25440
2017-10-16T11:39:11.333Z,20992
2017-10-16T11:40:12.960Z,22656
2017-10-16T11:41:14.589Z,27200
2017-10-16T11:42:16.214Z,27648
2017-10-16T11:43:17.839Z,27328
2017-10-16T11:44:19.466Z,27840
2017-10-16T11:45:21.101Z,28064
2017-10-16T11:46:22.731Z,28224
2017-10-16T11:47:24.356Z,28000
2017-10-16T11:48:25.987Z,27808
2017-10-16T11:49:27.615Z,27680
2017-10-16T11:50:29.237Z,27264
2017-10-16T11:51:30.864Z,26592
2017-10-16T11:52:32.497Z,26528
2017-10-16T11:53:34.131Z,26208
2017-10-16T11:54:35.757Z,26144
2017-10-16T11:55:37.381Z,25504
2017-10-16T11:56:39.012Z,25536
2017-10-16T11:57:40.637Z,25472
2017-10-16T11:58:42.270Z,25056
2017-10-16T11:59:43.901Z,25216
2017-10-16T12:00:45.553Z,24832
2017-10-16T12:01:47.172Z,23424
2017-10-16T12:02:48.797Z,16928
2017-10-16T12:03:50.430Z,12956
2017-10-16T12:04:52.054Z,12496
2017-10-16T12:05:53.686Z,12296
2017-10-16T12:06:55.312Z,12044
2017-10-16T12:07:56.945Z,11904
2017-10-16T12:08:58.565Z,11744
2017-10-16T12:10:00.197Z,11492
2017-10-16T12:11:01.821Z,11276
2017-10-16T12:12:03.453Z,11156
2017-10-16T12:13:05.079Z,11052
2017-10-16T12:14:06.705Z,10980
2017-10-16T12:15:08.341Z,10892
2017-10-16T12:16:09.963Z,10752
2017-10-16T12:17:11.588Z,10596
2017-10-16T12:18:13.214Z,10380
2017-10-16T12:19:14.839Z,10320
2017-10-16T12:20:16.469Z,10220
2017-10-16T12:21:18.099Z,10112
2017-10-16T12:22:19.721Z,9928
2017-10-16T12:23:21.351Z,9732
2017-10-16T12:24:22.972Z,9508
2017-10-16T12:25:24.599Z,9552
2017-10-16T12:26:26.221Z,9428
2017-10-16T12:27:27.848Z,9260
2017-10-16T12:28:29.472Z,9172
2017-10-16T12:29:31.106Z,9100
2017-10-16T12:30:32.736Z,9088
2017-10-16T12:31:34.355Z,9076
2017-10-16T12:32:35.977Z,9028
2017-10-16T12:33:37.603Z,8908
2017-10-16T12:34:39.227Z,8828
2017-10-16T12:35:40.859Z,8708
2017-10-16T12:36:42.487Z,8684
2017-10-16T12:37:44.112Z,8596
2017-10-16T12:38:45.740Z,8540
2017-10-16T12:39:47.359Z,8460
2017-10-16T12:40:48.982Z,8320
2017-10-16T12:41:50.613Z,8228
2017-10-16T12:42:52.238Z,8076
2017-10-16T12:43:53.864Z,7940
2017-10-16T12:44:55.484Z,7708
2017-10-16T12:45:57.114Z,7620
2017-10-16T12:46:58.735Z,7504
2017-10-16T12:48:00.359Z,7404
2017-10-16T12:49:01.988Z,7364
2017-10-16T12:50:03.614Z,7356
2017-10-16T12:51:05.246Z,7412
2017-10-16T12:52:06.863Z,7412
2017-10-16T12:53:08.491Z,7400
2017-10-16T12:54:10.113Z,7344
2017-10-16T12:55:11.737Z,7276
2017-10-16T12:56:13.369Z,7296
2017-10-16T12:57:14.989Z,7220
2017-10-16T12:58:16.623Z,7068
2017-10-16T12:59:18.236Z,6912
2017-10-16T13:00:19.863Z,6752
2017-10-16T13:01:21.483Z,6596
2017-10-16T13:02:23.111Z,6504
2017-10-16T13:03:24.737Z,6396
2017-10-16T13:04:26.368Z,6320
2017-10-16T13:05:27.989Z,6260
2017-10-16T13:06:29.616Z,6144
2017-10-16T13:07:31.237Z,6092
2017-10-16T13:08:32.865Z,6020
2017-10-16T13:09:34.487Z,5940
2017-10-16T13:10:36.118Z,5896
2017-10-16T13:11:37.740Z,5768
2017-10-16T13:12:39.369Z,5708
2017-10-16T13:13:40.993Z,5616
2017-10-16T13:14:42.612Z,5420
2017-10-16T13:15:44.233Z,5204
2017-10-16T13:16:45.864Z,5092
2017-10-16T13:17:47.494Z,4968
2017-10-16T13:18:49.113Z,4920
2017-10-16T13:19:50.735Z,4792
2017-10-16T13:20:52.366Z,4712
2017-10-16T13:21:53.986Z,4684
2017-10-16T13:22:55.606Z,4636
2017-10-16T13:23:57.230Z,4568
2017-10-16T13:24:58.859Z,4536
2017-10-16T13:26:00.485Z,4492
2017-10-16T13:27:02.108Z,4404
2017-10-16T13:28:03.734Z,4372
2017-10-16T13:29:05.360Z,4288
2017-10-16T13:30:06.979Z,4240
2017-10-16T13:31:08.598Z,4204
2017-10-16T13:32:10.220Z,4172
2017-10-16T13:33:11.847Z,4112
2017-10-16T13:34:13.474Z,4072
2017-10-16T13:35:15.094Z,4060
2017-10-16T13:36:16.719Z,4028
2017-10-16T13:37:18.340Z,3976
2017-10-16T13:38:19.965Z,3936
2017-10-16T13:39:21.584Z,3900
2017-10-16T13:40:23.210Z,3868
2017-10-16T13:41:24.836Z,3844
2017-10-16T13:42:26.460Z,3820
2017-10-16T13:43:28.077Z,3796
2017-10-16T13:44:29.706Z,3772
2017-10-16T13:45:31.327Z,3748
2017-10-16T13:46:32.956Z,3732
2017-10-16T13:47:34.578Z,3692
2017-10-16T13:48:36.206Z,3660
2017-10-16T13:49:37.824Z,3644
2017-10-16T13:50:39.450Z,3612
2017-10-16T13:51:41.069Z,3592
2017-10-16T13:52:42.694Z,3572
2017-10-16T13:53:44.312Z,3552
2017-10-16T13:54:45.940Z,3528
2017-10-16T13:55:47.561Z,3504
2017-10-16T13:56:49.187Z,3484
2017-10-16T13:57:50.804Z,3452
2017-10-16T13:58:52.430Z,3428
2017-10-16T13:59:54.049Z,3396
2017-10-16T14:00:55.667Z,3368
2017-10-16T14:01:57.297Z,3352
2017-10-16T14:02:58.921Z,3324
2017-10-16T14:04:00.538Z,3300
2017-10-16T14:05:02.159Z,3276
2017-10-16T14:06:03.788Z,3252
2017-10-16T14:07:05.409Z,3212
2017-10-16T14:08:07.025Z,3192